Time;durP1;ratioP1;P1;durP2;ratioP2;P2;SDS_P1;SDS_P2;PMS_P1;PMS_P2;Temp;Humidity;BMP_temperature;BMP_pressure;BME280_temperature;BME280_humidity;BME280_pressure;Samples;Min_cycle;Max_cycle;Signal;HPM_P1;HPM_P2
2023/06/01 00:05:04;;;;;;;;;;;;;;;11.75;70.22;98993.75;225411;1282;22998;-68
2023/06/01 00:10:15;;;;;;;11.00;5.90;;;;;;;11.61;70.69;98992.96;225470;1283;22551;-68
2023/06/01 00:15:30;;;;;;;11.10;6.20;;;;;;;11.49;70.97;98997.61;225478;1283;22527;-69
2023/06/01 00:21:00;;;;;;;8.50;6.20;;;;;;;11.38;71.35;99001.50;225459;1283;22551;-68
2023/06/01 00:26:02;;;;;;;12.00;6.50;;;;;;;11.30;71.44;98994.60;225463;1276;24212;-68
2023/06/01 00:31:09;;;;;;;10.30;6.50;;;;;;;11.24;71.71;98995.69;225401;1280;22552;-69
2023/06/01 00:36:14;;;;;;;9.40;6.60;;;;;;;11.18;71.74;98988.64;225349;1283;22549;-69
2023/06/01 00:41:25;;;;;;;9.40;6.40;;;;;;;11.13;72.20;98991.41;225345;1283;22559;-68
2023/06/01 00:46:30;;;;;;;8.20;6.20;;;;;;;11.10;72.42;98994.79;225373;1283;24274;-68
2023/06/01 00:51:35;;;;;;;9.60;6.30;;;;;;;11.04;72.97;98995.94;225343;1283;22562;-68
2023/06/01 00:56:44;;;;;;;11.20;5.70;;;;;;;10.97;73.52;98996.63;225348;1283;22558;-69
2023/06/01 01:01:47;;;;;;;11.20;7.70;;;;;;;10.87;73.48;98996.48;225443;1281;22541;-69
2023/06/01 01:07:20;;;;;;;12.70;8.00;;;;;;;10.72;73.50;98990.45;225383;1283;22572;-69
2023/06/01 01:12:46;;;;;;;13.90;7.90;;;;;;;10.59;73.86;98991.17;225343;1283;22557;-69
2023/06/01 01:18:01;;;;;;;12.40;7.20;;;;;;;10.51;73.89;98988.30;225338;1280;22584;-68
2023/06/01 01:23:16;;;;;;;11.90;8.20;;;;;;;10.44;74.01;98986.13;225327;1283;24272;-68
2023/06/01 01:28:42;;;;;;;10.70;7.70;;;;;;;10.39;73.91;98985.63;225405;1276;22543;-68
2023/06/01 01:33:51;;;;;;;15.20;8.70;;;;;;;10.36;74.29;98978.80;225344;1283;24234;-69
2023/06/01 01:38:53;;;;;;;13.40;7.70;;;;;;;10.34;74.02;98971.65;225297;1283;22584;-69
2023/06/01 01:43:59;;;;;;;12.10;8.10;;;;;;;10.33;74.39;98967.50;225418;1280;22559;-68
2023/06/01 01:49:30;;;;;;;12.80;7.80;;;;;;;10.32;74.23;98966.13;225263;1283;22486;-68
2023/06/01 01:54:37;;;;;;;11.90;7.70;;;;;;;10.27;74.33;98964.05;225368;1261;22918;-69
2023/06/01 01:59:52;;;;;;;14.90;8.70;;;;;;;10.23;74.55;98962.44;225382;1280;25350;-68
2023/06/01 02:04:55;;;;;;;13.20;8.80;;;;;;;10.21;74.71;98955.79;225313;1281;22527;-68
2023/06/01 02:10:08;;;;;;;14.60;9.30;;;;;;;10.18;74.53;98957.65;225322;1283;22515;-68
2023/06/01 02:15:13;;;;;;;15.70;8.90;;;;;;;10.15;74.75;98955.38;225443;1283;22560;-69
2023/06/01 02:20:25;;;;;;;12.80;8.50;;;;;;;10.13;74.82;98951.11;225295;1282;22555;-69
2023/06/01 02:25:47;;;;;;;11.30;7.50;;;;;;;10.10;74.98;98945.74;225347;1283;22640;-67
2023/06/01 02:30:51;;;;;;;12.90;8.60;;;;;;;10.07;74.98;98948.38;225294;1280;22563;-68
2023/06/01 02:35:54;;;;;;;14.40;9.90;;;;;;;10.04;75.20;98945.30;225426;1276;22570;-68
2023/06/01 02:41:17;;;;;;;18.40;9.90;;;;;;;10.03;74.97;98942.17;225265;1278;22565;-69
2023/06/01 02:46:25;;;;;;;19.80;11.00;;;;;;;10.03;75.19;98939.04;225078;1286;22573;-68
2023/06/01 02:51:31;;;;;;;17.10;11.80;;;;;;;10.03;75.19;98935.90;224956;1284;22553;-69
2023/06/01 02:57:06;;;;;;;17.50;13.00;;;;;;;10.02;75.24;98930.02;225002;1286;22539;-69
2023/06/01 03:02:20;;;;;;;19.70;13.30;;;;;;;10.03;75.15;98928.15;225071;1280;22547;-68
2023/06/01 03:07:24;;;;;;;18.60;13.30;;;;;;;10.03;74.86;98925.64;225121;1284;22543;-69
2023/06/01 03:12:31;;;;;;;19.00;13.50;;;;;;;10.06;75.18;98925.48;225097;1281;22639;-69
2023/06/01 03:17:36;;;;;;;18.60;12.50;;;;;;;10.12;75.13;98925.92;225249;1283;22590;-69
2023/06/01 03:22:39;;;;;;;17.60;11.60;;;;;;;10.46;75.26;98920.77;225352;1278;22563;-68
2023/06/01 03:27:51;;;;;;;17.40;10.30;;;;;;;10.88;74.69;98921.61;225371;1283;22543;-69
2023/06/01 03:33:03;;;;;;;16.10;10.00;;;;;;;11.34;74.26;98924.27;225293;1283;24954;-68
2023/06/01 03:38:08;;;;;;;12.40;9.30;;;;;;;11.74;73.21;98925.98;225369;1280;25346;-68
2023/06/01 03:43:11;;;;;;;15.00;9.60;;;;;;;12.08;72.36;98924.70;225333;1283;22595;-68
2023/06/01 03:48:29;;;;;;;14.10;9.40;;;;;;;12.34;71.75;98925.35;225396;1283;22547;-68
2023/06/01 03:53:32;;;;;;;15.80;9.30;;;;;;;12.52;71.34;98920.46;225273;1283;22527;-67
2023/06/01 03:58:46;;;;;;;17.40;10.60;;;;;;;12.66;70.98;98920.40;225319;1281;22573;-68
2023/06/01 04:04:04;;;;;;;16.50;10.00;;;;;;;12.65;70.94;98920.40;225304;1283;22554;-69
2023/06/01 04:09:09;;;;;;;15.80;10.10;;;;;;;12.63;71.01;98919.23;225331;1283;22539;-67
2023/06/01 04:14:31;;;;;;;14.80;10.30;;;;;;;12.68;71.07;98921.47;225378;1283;22563;-68
2023/06/01 04:19:38;;;;;;;15.50;9.80;;;;;;;12.73;71.12;98921.14;225317;1277;22530;-69
2023/06/01 04:24:47;;;;;;;14.10;9.30;;;;;;;12.71;70.99;98923.73;225318;1283;22542;-69
2023/06/01 04:29:50;;;;;;;14.00;10.00;;;;;;;12.61;70.89;98924.34;225295;1283;22547;-68
2023/06/01 04:34:59;;;;;;;18.00;10.10;;;;;;;12.54;71.06;98929.08;225329;1283;25887;-69
2023/06/01 04:40:09;;;;;;;14.80;10.00;;;;;;;12.52;71.40;98924.70;225400;1283;22536;-68
2023/06/01 04:45:13;;;;;;;15.30;9.80;;;;;;;12.57;71.50;98918.90;225394;1283;22536;-68
2023/06/01 04:50:22;;;;;;;17.80;10.30;;;;;;;12.72;71.88;98919.29;225315;1279;22541;-67
2023/06/01 04:55:34;;;;;;;16.70;10.00;;;;;;;12.92;71.97;98909.16;225249;1283;22554;-69
2023/06/01 05:00:44;;;;;;;15.00;10.10;;;;;;;13.14;71.89;98904.03;225306;1283;22547;-70
2023/06/01 05:05:56;;;;;;;17.80;10.30;;;;;;;13.32;71.68;98898.33;225287;1277;24274;-68
2023/06/01 05:11:12;;;;;;;19.30;10.40;;;;;;;13.50;71.68;98901.08;225350;1283;25278;-69
2023/06/01 05:16:15;;;;;;;18.40;11.10;;;;;;;13.70;71.52;98899.25;225330;1283;24258;-70
2023/06/01 05:21:17;;;;;;;22.20;15.30;;;;;;;13.87;71.34;98894.33;225378;1283;22551;-69
2023/06/01 05:26:22;;;;;;;21.80;17.40;;;;;;;14.03;71.26;98894.59;225321;1279;22572;-69
2023/06/01 05:31:24;;;;;;;19.40;12.40;;;;;;;14.20;71.41;98889.93;225335;1273;22551;-68
2023/06/01 05:36:31;;;;;;;12.90;9.00;;;;;;;14.41;71.05;98887.02;225392;1279;22568;-68
2023/06/01 05:41:35;;;;;;;15.30;9.60;;;;;;;14.64;70.54;98882.16;225301;1276;22571;-68
2023/06/01 05:46:37;;;;;;;12.30;8.80;;;;;;;14.85;70.10;98881.44;225082;1262;22542;-69
2023/06/01 05:51:40;;;;;;;13.70;9.70;;;;;;;15.06;69.90;98881.98;225185;1280;23163;-68
2023/06/01 05:56:44;;;;;;;12.20;9.20;;;;;;;15.29;69.66;98880.15;225122;1277;22570;-70
2023/06/01 06:02:09;;;;;;;13.20;8.60;;;;;;;15.54;69.39;98879.92;224687;1262;22545;-70
2023/06/01 06:07:11;;;;;;;13.30;9.10;;;;;;;15.76;68.75;98880.70;224952;1277;22551;-69
2023/06/01 06:12:13;;;;;;;12.10;8.10;;;;;;;15.97;68.56;98882.90;224804;1272;138244;-69
2023/06/01 06:17:16;;;;;;;10.10;7.90;;;;;;;16.20;68.34;98886.84;224808;1282;138828;-71
2023/06/01 06:22:20;;;;;;;11.40;8.40;;;;;;;16.41;68.15;98889.71;224536;1265;138746;-69
2023/06/01 06:27:23;;;;;;;17.80;8.60;;;;;;;16.61;67.61;98884.36;224711;1265;138652;-69
2023/06/01 06:32:25;;;;;;;12.40;7.30;;;;;;;16.80;67.39;98882.34;224867;1283;138667;-68
2023/06/01 06:37:29;;;;;;;11.50;6.10;;;;;;;17.05;67.06;98879.33;224927;1268;138834;-69
2023/06/01 06:42:32;;;;;;;13.80;7.70;;;;;;;17.29;66.37;98873.26;224649;1263;137977;-68
2023/06/01 06:47:54;;;;;;;12.00;6.70;;;;;;;17.52;66.07;98873.09;224670;1281;138021;-69
2023/06/01 06:52:56;;;;;;;11.60;6.50;;;;;;;17.77;66.35;98876.66;224682;1262;139651;-70
2023/06/01 06:57:59;;;;;;;9.30;6.80;;;;;;;17.97;66.03;98873.05;224926;1277;22924;-68
2023/06/01 07:03:08;;;;;;;11.00;7.00;;;;;;;18.22;65.65;98871.41;224847;1276;138189;-70
2023/06/01 07:08:11;;;;;;;11.90;6.20;;;;;;;18.39;65.00;98866.63;224972;1280;137952;-69
2023/06/01 07:13:13;;;;;;;10.10;5.70;;;;;;;18.58;64.84;98860.98;225056;1275;137909;-69
2023/06/01 07:18:15;;;;;;;8.60;5.00;;;;;;;18.79;64.38;98859.27;225045;1271;138084;-71
2023/06/01 07:23:17;;;;;;;8.20;5.10;;;;;;;19.06;63.98;98853.94;225045;1275;137927;-70
2023/06/01 07:28:22;;;;;;;6.70;5.10;;;;;;;19.31;63.54;98854.27;225061;1269;22547;-68
2023/06/01 07:33:28;;;;;;;10.40;5.40;;;;;;;19.59;63.11;98851.56;224922;1260;137197;-70
2023/06/01 07:38:31;;;;;;;7.20;4.60;;;;;;;19.84;62.35;98844.93;225011;1275;137981;-69
2023/06/01 07:43:36;;;;;;;9.70;4.80;;;;;;;20.04;61.63;98848.11;224992;1274;138543;-70
2023/06/01 07:48:39;;;;;;;7.20;4.50;;;;;;;20.24;61.33;98847.84;225004;1277;137683;-70
2023/06/01 07:53:50;;;;;;;9.30;4.90;;;;;;;20.40;60.67;98845.48;224963;1280;137756;-70
2023/06/01 07:58:53;;;;;;;6.80;4.70;;;;;;;20.58;60.46;98850.75;224876;1283;137818;-69
2023/06/01 08:04:04;;;;;;;7.80;4.10;;;;;;;20.79;60.16;98846.10;224937;1284;22532;-70
2023/06/01 08:09:10;;;;;;;5.60;3.70;;;;;;;21.00;59.91;98843.63;224782;1268;137559;-70
2023/06/01 08:14:12;;;;;;;6.70;3.80;;;;;;;21.25;59.45;98842.23;224880;1278;138134;-69
2023/06/01 08:19:14;;;;;;;7.70;3.70;;;;;;;21.47;58.38;98841.92;224826;1268;137912;-71
2023/06/01 08:24:17;;;;;;;6.20;3.40;;;;;;;21.67;57.73;98837.66;224875;1281;137824;-69
2023/06/01 08:29:20;;;;;;;8.40;3.30;;;;;;;21.86;57.18;98831.50;225002;1280;137932;-70
2023/06/01 08:34:46;;;;;;;4.80;3.30;;;;;;;22.13;56.55;98823.83;224964;1282;137803;-70
2023/06/01 08:39:48;;;;;;;4.40;3.40;;;;;;;22.34;55.00;98816.27;224873;1277;22655;-71
2023/06/01 08:44:54;;;;;;;8.00;5.30;;;;;;;22.49;54.74;98815.63;224784;1265;137422;-70
2023/06/01 08:49:58;;;;;;;5.60;3.50;;;;;;;22.61;53.76;98806.83;224847;1274;137609;-74
2023/06/01 08:55:04;;;;;;;4.60;2.90;;;;;;;22.72;53.40;98799.81;224875;1277;138642;-70
2023/06/01 09:00:08;;;;;;;4.10;3.10;;;;;;;22.90;52.82;98798.40;224934;1284;138114;-71
2023/06/01 09:05:12;;;;;;;5.00;2.90;;;;;;;23.07;51.63;98796.42;224900;1282;138088;-70
2023/06/01 09:10:15;;;;;;;4.60;2.80;;;;;;;23.22;50.74;98787.16;224992;1277;22576;-70
2023/06/01 09:15:18;;;;;;;6.60;3.10;;;;;;;23.32;50.07;98779.87;224835;1279;137427;-71
2023/06/01 09:20:25;;;;;;;4.30;2.60;;;;;;;23.49;49.88;98776.75;224897;1284;137572;-71
2023/06/01 09:25:30;;;;;;;3.90;2.90;;;;;;;23.63;49.75;98770.65;224931;1273;138135;-72
2023/06/01 09:30:44;;;;;;;8.10;2.80;;;;;;;23.78;49.18;98767.27;224996;1262;137808;-73
2023/06/01 09:35:48;;;;;;;4.00;3.00;;;;;;;23.82;48.34;98768.76;224981;1281;137755;-71
2023/06/01 09:40:59;;;;;;;4.20;2.70;;;;;;;23.90;48.34;98765.17;225140;1280;137718;-70
2023/06/01 09:46:11;;;;;;;3.30;2.70;;;;;;;24.05;48.29;98764.20;225119;1283;23208;-71
2023/06/01 09:51:22;;;;;;;7.50;3.60;;;;;;;24.21;48.19;98761.73;224944;1275;137660;-71
2023/06/01 09:56:25;;;;;;;5.30;2.90;;;;;;;24.36;47.72;98755.29;224913;1277;137859;-71
2023/06/01 10:01:31;;;;;;;2.90;2.70;;;;;;;24.40;46.51;98750.14;224945;1271;137814;-70
2023/06/01 10:06:40;;;;;;;3.50;2.80;;;;;;;24.40;46.19;98748.95;224938;1276;137898;-71
2023/06/01 10:11:45;;;;;;;5.90;3.10;;;;;;;24.52;46.14;98738.40;224821;1264;138040;-71
2023/06/01 10:16:52;;;;;;;3.80;2.90;;;;;;;24.54;45.01;98732.59;225007;1268;138082;-70
2023/06/01 10:21:57;;;;;;;5.50;2.90;;;;;;;24.56;45.16;98722.80;225057;1265;22550;-70
2023/06/01 10:27:05;;;;;;;6.30;3.00;;;;;;;24.73;44.95;98727.77;225126;1279;137413;-73
2023/06/01 10:32:36;;;;;;;3.20;2.70;;;;;;;24.84;44.58;98720.66;224954;1281;137574;-74
2023/06/01 10:37:38;;;;;;;4.10;3.10;;;;;;;25.02;44.20;98714.60;224895;1264;195933;-73
2023/06/01 10:42:40;;;;;;;5.10;3.00;;;;;;;25.10;44.01;98705.71;224883;1281;137748;-74
2023/06/01 10:47:42;;;;;;;5.30;2.80;;;;;;;25.31;43.36;98703.84;224783;1283;137755;-73
2023/06/01 10:52:45;;;;;;;3.30;2.90;;;;;;;25.47;43.57;98694.20;224976;1277;138441;-73
2023/06/01 10:57:48;;;;;;;3.80;2.70;;;;;;;25.59;42.86;98689.46;225235;1275;24312;-73
2023/06/01 11:03:01;;;;;;;3.70;2.70;;;;;;;25.64;42.49;98687.77;224958;1283;137488;-74
2023/06/01 11:08:05;;;;;;;4.90;2.80;;;;;;;25.78;42.89;98687.49;224981;1281;137602;-73
2023/06/01 11:13:12;;;;;;;3.80;2.50;;;;;;;25.88;41.81;98677.89;224947;1271;137802;-73
2023/06/01 11:18:41;;;;;;;5.40;2.80;;;;;;;25.87;41.64;98669.77;225099;1280;137813;-73
2023/06/01 11:23:47;;;;;;;3.40;2.60;;;;;;;25.96;41.40;98668.10;224960;1265;137818;-72
2023/06/01 11:28:50;;;;;;;5.90;2.50;;;;;;;26.06;41.20;98663.15;225245;1278;137873;-72
2023/06/01 11:33:57;;;;;;;5.60;3.00;;;;;;;26.10;41.32;98657.99;224991;1275;22984;-72
2023/06/01 11:38:59;;;;;;;3.30;2.70;;;;;;;26.24;41.59;98649.27;224842;1278;137573;-73
2023/06/01 11:44:19;;;;;;;4.30;2.80;;;;;;;26.16;40.98;98652.22;224964;1273;137863;-73
2023/06/01 11:49:22;;;;;;;3.00;2.50;;;;;;;26.16;41.43;98648.11;225049;1280;137863;-74
2023/06/01 11:54:26;;;;;;;3.80;2.60;;;;;;;26.17;41.34;98645.42;224832;1281;137715;-73
2023/06/01 11:59:37;;;;;;;3.10;2.40;;;;;;;26.16;41.02;98641.00;225041;1279;137825;-73
2023/06/01 12:04:39;;;;;;;3.50;2.50;;;;;;;26.14;41.03;98632.85;225126;1279;137782;-73
2023/06/01 12:09:45;;;;;;;3.30;2.50;;;;;;;26.26;41.25;98626.52;225194;1280;22541;-73
2023/06/01 12:14:49;;;;;;;6.00;2.80;;;;;;;26.38;40.88;98624.63;224971;1278;137397;-73
2023/06/01 12:19:51;;;;;;;2.60;2.40;;;;;;;26.38;41.05;98619.91;225003;1281;138017;-73
2023/06/01 12:24:53;;;;;;;3.10;2.50;;;;;;;26.31;41.02;98616.75;224935;1283;137811;-73
2023/06/01 12:29:57;;;;;;;4.20;2.40;;;;;;;26.33;41.09;98613.58;225000;1283;138074;-74
2023/06/01 12:35:05;;;;;;;6.20;2.70;;;;;;;26.41;40.47;98603.05;224563;1284;137993;-72
2023/06/01 12:40:09;;;;;;;3.00;2.70;;;;;;;26.47;40.17;98603.55;224930;1277;22537;-73
2023/06/01 12:45:11;;;;;;;3.30;2.60;;;;;;;26.43;40.01;98603.83;225111;1281;137418;-73
2023/06/01 12:50:14;;;;;;;2.70;2.50;;;;;;;26.39;39.83;98598.71;225061;1265;137655;-73
2023/06/01 12:55:17;;;;;;;3.50;2.50;;;;;;;26.26;39.60;98590.96;224930;1283;137785;-74
2023/06/01 13:00:20;;;;;;;4.00;2.10;;;;;;;26.23;39.41;98594.70;225106;1264;137854;-73
2023/06/01 13:05:24;;;;;;;3.10;2.80;;;;;;;26.25;38.91;98589.83;225055;1275;137729;-71
2023/06/01 13:10:26;;;;;;;2.80;2.60;;;;;;;26.25;39.21;98583.84;225038;1275;22692;-72
2023/06/01 13:15:28;;;;;;;3.60;2.30;;;;;;;26.26;39.67;98583.33;225042;1283;137282;-73
2023/06/01 13:20:31;;;;;;;2.50;2.30;;;;;;;26.36;40.06;98580.17;225010;1281;137626;-74
2023/06/01 13:25:33;;;;;;;2.80;2.20;;;;;;;26.36;39.45;98581.35;224985;1280;137740;-72
2023/06/01 13:30:35;;;;;;;3.10;2.40;;;;;;;26.37;39.47;98576.58;225090;1281;138215;-72
2023/06/01 13:35:37;;;;;;;3.50;2.30;;;;;;;26.45;39.95;98572.48;225019;1279;138174;-72
2023/06/01 13:40:39;;;;;;;4.10;2.40;;;;;;;26.46;39.61;98562.70;224968;1276;137929;-72
2023/06/01 13:45:41;;;;;;;2.90;2.10;;;;;;;26.50;39.61;98554.50;225229;1281;22548;-70
2023/06/01 13:50:43;;;;;;;2.70;2.40;;;;;;;26.63;39.70;98549.45;224703;1281;137671;-69
2023/06/01 13:55:45;;;;;;;2.50;2.30;;;;;;;26.82;39.63;98548.46;224852;1282;137828;-69
2023/06/01 14:00:48;;;;;;;3.50;2.60;;;;;;;26.82;39.07;98539.09;224791;1275;137795;-69
2023/06/01 14:05:49;;;;;;;3.00;2.60;;;;;;;26.85;39.18;98532.73;224742;1278;22683;-72
2023/06/01 14:10:59;;;;;;;3.50;2.40;;;;;;;26.97;39.59;98529.80;225054;1279;25278;-69
2023/06/01 14:16:01;;;;;;;3.00;2.40;;;;;;;27.04;39.07;98519.42;225198;1276;22545;-67
2023/06/01 14:21:04;;;;;;;4.00;2.40;;;;;;;27.09;39.28;98518.24;225325;1281;22977;-68
2023/06/01 14:26:05;;;;;;;3.20;2.70;;;;;;;27.10;39.54;98516.28;225400;1280;22541;-68
2023/06/01 14:31:08;;;;;;;2.70;2.50;;;;;;;27.08;39.64;98511.91;225506;1279;22523;-68
2023/06/01 14:36:10;;;;;;;3.70;2.60;;;;;;;27.15;40.07;98503.85;225487;1265;22557;-70
2023/06/01 14:41:12;;;;;;;3.90;2.50;;;;;;;27.22;40.24;98496.91;225504;1281;24343;-69
2023/06/01 14:46:14;;;;;;;3.40;2.70;;;;;;;27.30;40.44;98500.92;225415;1283;25329;-68
2023/06/01 14:51:16;;;;;;;4.40;2.80;;;;;;;27.14;39.96;98496.98;225490;1279;22547;-69
2023/06/01 14:56:18;;;;;;;4.30;2.90;;;;;;;26.89;39.99;98498.42;225445;1281;22566;-66
2023/06/01 15:01:23;;;;;;;3.30;2.70;;;;;;;26.88;40.29;98493.94;225392;1283;22547;-67
2023/06/01 15:06:26;;;;;;;2.90;2.60;;;;;;;26.91;39.94;98494.80;225430;1279;22564;-68
2023/06/01 15:11:28;;;;;;;3.40;2.60;;;;;;;26.85;40.14;98488.87;225454;1278;22552;-68
2023/06/01 15:16:33;;;;;;;3.00;2.70;;;;;;;26.77;40.16;98485.99;225306;1281;22649;-69
2023/06/01 15:21:39;;;;;;;3.50;2.90;;;;;;;26.58;40.31;98482.01;225464;1281;22539;-69
2023/06/01 15:26:41;;;;;;;5.10;3.00;;;;;;;26.41;40.28;98470.08;225337;1283;25350;-68
2023/06/01 15:31:45;;;;;;;4.60;3.00;;;;;;;26.28;40.65;98466.10;225326;1280;23266;-68
2023/06/01 15:36:47;;;;;;;3.10;2.60;;;;;;;26.25;40.97;98457.49;225353;1281;22608;-67
2023/06/01 15:41:49;;;;;;;3.50;2.70;;;;;;;26.24;40.91;98449.72;225318;1282;23285;-68
2023/06/01 15:46:58;;;;;;;3.00;2.80;;;;;;;26.23;41.13;98446.96;225406;1283;24457;-69
2023/06/01 15:52:03;;;;;;;4.80;2.90;;;;;;;26.20;41.13;98442.14;225489;1281;22576;-68
2023/06/01 15:57:06;;;;;;;3.30;2.90;;;;;;;26.21;41.99;98436.96;225298;1283;24222;-68
2023/06/01 16:02:12;;;;;;;4.90;2.80;;;;;;;26.28;42.07;98430.13;225326;1281;22544;-68
2023/06/01 16:07:14;;;;;;;4.00;2.90;;;;;;;26.25;42.02;98424.98;225395;1275;22598;-69
2023/06/01 16:12:15;;;;;;;3.40;2.80;;;;;;;26.21;42.10;98422.30;225456;1280;22530;-68
2023/06/01 16:17:17;;;;;;;4.80;3.00;;;;;;;26.17;42.28;98423.55;225386;1283;22547;-68
2023/06/01 16:22:19;;;;;;;4.80;3.00;;;;;;;26.12;42.41;98419.30;225479;1283;22563;-68
2023/06/01 16:27:22;;;;;;;4.50;2.90;;;;;;;26.04;42.52;98411.33;225363;1281;25406;-69
2023/06/01 16:32:26;;;;;;;5.00;3.00;;;;;;;25.98;43.03;98409.52;225305;1282;22559;-69
2023/06/01 16:37:28;;;;;;;4.90;2.90;;;;;;;25.94;43.09;98405.55;225428;1281;22527;-68
2023/06/01 16:42:30;;;;;;;3.30;3.00;;;;;;;25.88;43.18;98404.88;225430;1278;22599;-68
2023/06/01 16:47:32;;;;;;;4.00;2.90;;;;;;;25.79;43.33;98398.11;225294;1280;22540;-68
2023/06/01 16:52:34;;;;;;;4.30;3.00;;;;;;;25.71;43.67;98393.67;225454;1281;24244;-68
2023/06/01 16:57:37;;;;;;;3.70;3.20;;;;;;;25.65;43.78;98391.36;225381;1283;22545;-70
2023/06/01 17:02:44;;;;;;;5.00;2.50;;;;;;;25.56;43.89;98385.08;225482;1281;22656;-68
2023/06/01 17:07:46;;;;;;;3.70;2.90;;;;;;;25.50;44.11;98383.52;225368;1283;22547;-70
2023/06/01 17:12:51;;;;;;;3.80;2.80;;;;;;;25.90;44.53;98379.77;225463;1282;22657;-70
2023/06/01 17:17:54;;;;;;;4.30;2.70;;;;;;;27.08;43.92;98378.11;225323;1283;22704;-68
2023/06/01 17:22:56;;;;;;;3.50;2.80;;;;;;;28.11;42.77;98373.68;225395;1281;22542;-69
2023/06/01 17:27:58;;;;;;;3.80;2.60;;;;;;;29.00;41.70;98371.78;225367;1283;22546;-68
2023/06/01 17:33:01;;;;;;;3.40;3.10;;;;;;;29.69;41.10;98372.03;225288;1282;22543;-68
2023/06/01 17:38:03;;;;;;;3.30;2.80;;;;;;;30.10;40.97;98370.55;225357;1283;22630;-68
2023/06/01 17:43:05;;;;;;;4.00;2.80;;;;;;;30.33;40.54;98370.79;225269;1281;22551;-71
2023/06/01 17:48:07;;;;;;;5.10;3.60;;;;;;;29.58;40.32;98365.56;225333;1281;22539;-68
2023/06/01 17:53:10;;;;;;;4.80;2.90;;;;;;;28.72;40.55;98369.29;225333;1275;22552;-69
2023/06/01 17:58:32;;;;;;;3.30;3.00;;;;;;;27.66;40.80;98371.51;225362;1281;22553;-68
2023/06/01 18:03:34;;;;;;;3.90;3.50;;;;;;;26.83;41.54;98371.29;225453;1279;22544;-67
2023/06/01 18:08:36;;;;;;;243.90;218.50;;;;;;;26.24;42.12;98369.63;225456;1281;23253;-69
2023/06/01 18:13:40;;;;;;;12.30;8.80;;;;;;;25.76;43.16;98370.00;225325;1269;22544;-68
2023/06/01 18:18:42;;;;;;;9.70;6.10;;;;;;;25.31;43.30;98365.73;225387;1279;22600;-69
2023/06/01 18:23:46;;;;;;;5.70;3.80;;;;;;;24.87;43.61;98364.77;225328;1283;22547;-68
2023/06/01 18:28:48;;;;;;;5.60;3.30;;;;;;;24.51;44.09;98360.59;225358;1282;22901;-67
2023/06/01 18:33:51;;;;;;;5.80;3.90;;;;;;;24.18;44.88;98364.41;225478;1281;22622;-67
2023/06/01 18:38:53;;;;;;;4.40;3.20;;;;;;;23.83;45.56;98366.83;225352;1281;22544;-67
2023/06/01 18:43:55;;;;;;;6.10;3.60;;;;;;;23.45;46.27;98363.30;225440;1283;22548;-68
2023/06/01 18:48:57;;;;;;;5.50;3.10;;;;;;;23.08;46.90;98365.98;225455;1283;24262;-68
2023/06/01 18:54:00;;;;;;;6.90;3.20;;;;;;;22.72;47.72;98369.40;225331;1283;22555;-68
2023/06/01 18:59:02;;;;;;;176.20;160.50;;;;;;;22.35;48.50;98370.45;225289;1277;22555;-67
2023/06/01 19:04:04;;;;;;;14.10;10.60;;;;;;;22.01;48.93;98375.26;225327;1281;25425;-68
2023/06/01 19:09:08;;;;;;;9.60;5.30;;;;;;;21.68;49.54;98379.25;225316;1283;22540;-68
2023/06/01 19:14:12;;;;;;;6.10;4.00;;;;;;;21.35;50.26;98377.00;225449;1283;22548;-69
2023/06/01 19:19:22;;;;;;;3.90;3.00;;;;;;;21.00;50.72;98378.99;225475;1283;25404;-68
2023/06/01 19:24:25;;;;;;;4.30;3.30;;;;;;;20.69;51.10;98378.20;225436;1283;23292;-68
2023/06/01 19:29:31;;;;;;;6.20;3.50;;;;;;;20.41;51.80;98383.61;225370;1283;22613;-68
2023/06/01 19:34:34;;;;;;;6.40;4.10;;;;;;;20.16;52.27;98386.08;225483;1283;25249;-67
2023/06/01 19:39:39;;;;;;;7.10;4.60;;;;;;;19.92;52.77;98384.00;225404;1283;22535;-68
2023/06/01 19:44:42;;;;;;;9.70;3.80;;;;;;;19.70;53.35;98382.66;225371;1283;22599;-69
2023/06/01 19:49:47;;;;;;;8.10;3.70;;;;;;;19.50;54.00;98383.72;225369;1283;23012;-69
2023/06/01 19:54:55;;;;;;;4.50;3.20;;;;;;;19.29;54.72;98384.68;225357;1283;22541;-68
2023/06/01 19:59:57;;;;;;;5.60;3.30;;;;;;;19.09;55.43;98388.73;225369;1276;22611;-69
2023/06/01 20:04:59;;;;;;;31.30;24.70;;;;;;;18.89;55.94;98389.33;225428;1283;22548;-67
2023/06/01 20:10:02;;;;;;;5.40;4.20;;;;;;;18.72;56.43;98392.44;225325;1279;24423;-68
2023/06/01 20:15:04;;;;;;;9.30;4.00;;;;;;;18.55;56.84;98393.98;225387;1279;22554;-68
2023/06/01 20:20:06;;;;;;;6.80;4.00;;;;;;;18.42;57.38;98396.85;225388;1283;22552;-68
2023/06/01 20:25:08;;;;;;;7.30;4.00;;;;;;;18.30;58.16;98403.97;225355;1283;22559;-68
2023/06/01 20:31:05;;;;;;;4.80;3.70;;;;;;;18.18;58.51;98402.46;225390;1283;22577;-69
2023/06/01 20:36:11;;;;;;;10.80;6.50;;;;;;;18.04;59.18;98400.28;224741;1289;22546;-68
2023/06/01 20:41:22;;;;;;;19.60;8.20;;;;;;;17.89;60.17;98399.52;225276;1283;22565;-67
2023/06/01 20:46:28;;;;;;;9.10;6.10;;;;;;;17.75;60.75;98405.77;225360;1283;22545;-67
2023/06/01 20:51:33;;;;;;;14.00;5.90;;;;;;;17.62;61.52;98409.14;225359;1283;22573;-68
2023/06/01 20:57:02;;;;;;;11.30;5.70;;;;;;;17.53;61.95;98408.38;225376;1279;25235;-67
2023/06/01 21:02:08;;;;;;;11.00;5.80;;;;;;;17.45;62.73;98410.45;225361;1283;22574;-69
2023/06/01 21:07:10;;;;;;;14.10;6.50;;;;;;;17.39;63.26;98410.37;225399;1280;22524;-67
2023/06/01 21:12:12;;;;;;;8.00;5.60;;;;;;;17.35;63.32;98406.90;225371;1282;22561;-67
2023/06/01 21:17:14;;;;;;;9.40;5.90;;;;;;;17.32;63.59;98404.51;225305;1283;22539;-67
2023/06/01 21:22:16;;;;;;;7.70;6.10;;;;;;;17.29;63.96;98403.16;225230;1283;22552;-69
2023/06/01 21:27:18;;;;;;;9.00;6.30;;;;;;;17.23;63.81;98408.23;225321;1283;25278;-69
2023/06/01 21:32:20;;;;;;;9.60;6.10;;;;;;;17.15;64.07;98403.70;225290;1283;23024;-68
2023/06/01 21:37:22;;;;;;;9.00;5.50;;;;;;;17.08;64.33;98407.63;225361;1280;25237;-68
2023/06/01 21:42:24;;;;;;;9.00;5.40;;;;;;;17.03;64.59;98408.77;225421;1277;22708;-71
2023/06/01 21:47:26;;;;;;;9.00;5.30;;;;;;;16.97;64.68;98408.92;225354;1280;22560;-66
2023/06/01 21:52:28;;;;;;;7.90;6.10;;;;;;;16.90;64.71;98409.11;225347;1280;22556;-67
2023/06/01 21:57:30;;;;;;;8.70;6.70;;;;;;;16.81;64.97;98405.85;225319;1282;22550;-66
2023/06/01 22:02:47;;;;;;;10.10;7.40;;;;;;;16.73;65.15;98407.35;225238;1283;22560;-68
2023/06/01 22:07:54;;;;;;;10.00;7.40;;;;;;;16.66;65.31;98409.69;225350;1283;22563;-67
2023/06/01 22:13:07;;;;;;;12.40;7.70;;;;;;;16.57;65.42;98411.69;225382;1279;22542;-67
2023/06/01 22:18:09;;;;;;;8.40;7.40;;;;;;;16.48;65.64;98411.21;225406;1260;22543;-69
2023/06/01 22:23:11;;;;;;;11.00;7.40;;;;;;;16.37;65.93;98417.85;225447;1280;22536;-68
2023/06/01 22:28:13;;;;;;;8.60;6.80;;;;;;;16.26;66.16;98420.77;225295;1282;22576;-68
2023/06/01 22:33:15;;;;;;;7.10;5.80;;;;;;;16.18;66.35;98423.46;225349;1281;22547;-67
2023/06/01 22:38:17;;;;;;;7.50;5.40;;;;;;;16.11;66.37;98426.13;225168;1282;198115;-69
2023/06/01 22:43:19;;;;;;;6.90;5.50;;;;;;;16.06;66.42;98425.85;225315;1283;22550;-67
2023/06/01 22:48:21;;;;;;;12.60;6.60;;;;;;;16.06;66.04;98429.38;225294;1276;25298;-67
2023/06/01 22:53:24;;;;;;;6.70;4.90;;;;;;;16.10;65.35;98435.02;225363;1280;22556;-67
2023/06/01 22:58:27;;;;;;;8.90;5.10;;;;;;;16.11;65.20;98438.52;225433;1283;22574;-68
2023/06/01 23:03:29;;;;;;;7.00;4.60;;;;;;;16.05;64.80;98437.59;225293;1281;24919;-68
2023/06/01 23:08:31;;;;;;;5.50;4.80;;;;;;;15.96;64.56;98434.43;225385;1279;22555;-66
2023/06/01 23:13:35;;;;;;;6.50;4.80;;;;;;;15.81;64.61;98432.91;225335;1283;24257;-66
2023/06/01 23:18:39;;;;;;;7.00;5.20;;;;;;;15.65;64.84;98433.47;225346;1280;25039;-67
2023/06/01 23:23:44;;;;;;;10.80;5.40;;;;;;;15.50;65.33;98431.41;225349;1280;22547;-67
2023/06/01 23:28:58;;;;;;;9.60;5.80;;;;;;;15.40;65.75;98435.05;225328;1283;22554;-67
2023/06/01 23:34:02;;;;;;;10.10;6.10;;;;;;;15.31;66.25;98436.63;225306;1282;22543;-68